createdAt,value
2018-10-06T00:00:34.753Z,96.36
2018-10-06T00:01:34.922Z,95.98
2018-10-06T00:02:35.101Z,95.79
2018-10-06T00:03:35.330Z,95.89
2018-10-06T00:04:35.464Z,96.17
2018-10-06T00:05:35.652Z,96.17
2018-10-06T00:06:35.813Z,95.98
2018-10-06T00:07:35.995Z,96.08
2018-10-06T00:08:36.175Z,96.46
2018-10-06T00:09:36.342Z,95.89
2018-10-06T00:10:36.519Z,96.55
2018-10-06T00:11:36.699Z,95.98
2018-10-06T00:12:36.873Z,95.89
2018-10-06T00:13:37.043Z,95.89
2018-10-06T00:14:37.207Z,95.98
2018-10-06T00:15:37.385Z,96.46
2018-10-06T00:16:37.558Z,96.08
2018-10-06T00:17:37.736Z,95.98
2018-10-06T00:18:37.922Z,96.08
2018-10-06T00:19:38.087Z,96.17
2018-10-06T00:20:38.262Z,95.79
2018-10-06T00:21:38.435Z,95.98
2018-10-06T00:22:38.609Z,96.08
2018-10-06T00:23:38.781Z,95.98
2018-10-06T00:24:38.961Z,96.70
2018-10-06T00:25:39.136Z,96.60
2018-10-06T00:26:39.309Z,96.98
2018-10-06T00:27:39.494Z,97.17
2018-10-06T00:28:39.664Z,96.98
2018-10-06T00:29:39.844Z,97.27
2018-10-06T00:30:40.015Z,97.17
2018-10-06T00:31:40.188Z,97.08
2018-10-06T00:32:40.364Z,96.89
2018-10-06T00:33:40.537Z,96.89
2018-10-06T00:34:40.718Z,97.17
2018-10-06T00:35:40.896Z,96.98
2018-10-06T00:36:41.066Z,96.89
2018-10-06T00:37:41.245Z,97.93
2018-10-06T00:38:41.420Z,97.74
2018-10-06T00:39:41.595Z,97.46
2018-10-06T00:40:41.769Z,97.84
2018-10-06T00:41:41.945Z,97.27
2018-10-06T00:42:42.122Z,96.60
2018-10-06T00:43:42.305Z,96.89
2018-10-06T00:44:42.477Z,96.79
2018-10-06T00:45:42.654Z,95.84
2018-10-06T00:46:42.828Z,96.12
2018-10-06T00:47:43.010Z,96.03
2018-10-06T00:48:43.183Z,95.17
2018-10-06T00:49:43.373Z,95.56
2018-10-06T00:50:43.523Z,95.84
2018-10-06T00:51:43.694Z,96.12
2018-10-06T00:52:43.871Z,96.03
2018-10-06T00:53:44.049Z,96.31
2018-10-06T00:54:44.218Z,96.12
2018-10-06T00:55:44.395Z,96.12
2018-10-06T00:56:44.568Z,96.31
2018-10-06T00:57:44.745Z,95.46
2018-10-06T00:58:44.916Z,96.12
2018-10-06T00:59:45.084Z,96.12
2018-10-06T01:00:45.270Z,96.41
2018-10-06T01:01:45.445Z,96.31
2018-10-06T01:02:45.625Z,96.12
2018-10-06T01:03:45.801Z,95.94
2018-10-06T01:04:45.973Z,96.03
2018-10-06T01:05:46.151Z,96.60
2018-10-06T01:06:46.326Z,96.12
2018-10-06T01:07:46.498Z,95.75
2018-10-06T01:08:46.680Z,95.75
2018-10-06T01:09:46.848Z,95.17
2018-10-06T01:10:47.031Z,95.17
2018-10-06T01:11:47.205Z,94.79
2018-10-06T01:12:47.373Z,94.70
2018-10-06T01:13:47.544Z,94.60
2018-10-06T01:14:47.723Z,94.60
2018-10-06T01:15:47.898Z,94.79
2018-10-06T01:16:48.072Z,94.60
2018-10-06T01:17:48.248Z,94.79
2018-10-06T01:18:48.423Z,94.89
2018-10-06T01:19:48.597Z,94.98
2018-10-06T01:20:48.780Z,95.27
2018-10-06T01:21:48.948Z,95.17
2018-10-06T01:22:49.145Z,95.41
2018-10-06T01:23:49.292Z,96.12
2018-10-06T01:24:49.468Z,95.98
2018-10-06T01:25:49.644Z,96.08
2018-10-06T01:26:49.816Z,95.79
2018-10-06T01:27:49.993Z,95.79
2018-10-06T01:28:50.164Z,96.36
2018-10-06T01:29:50.340Z,96.55
2018-10-06T01:30:50.518Z,96.26
2018-10-06T01:31:50.693Z,96.26
2018-10-06T01:32:50.868Z,95.98
2018-10-06T01:33:51.043Z,95.98
2018-10-06T01:34:51.220Z,96.26
2018-10-06T01:35:51.391Z,96.65
2018-10-06T01:36:51.570Z,96.55
2018-10-06T01:37:51.742Z,96.55
2018-10-06T01:38:51.925Z,96.94
2018-10-06T01:39:52.091Z,96.94
2018-10-06T01:40:52.267Z,97.13
2018-10-06T01:41:52.442Z,97.22
2018-10-06T01:42:52.618Z,96.84
2018-10-06T01:43:52.794Z,97.03
2018-10-06T01:44:52.969Z,96.84
2018-10-06T01:45:53.155Z,97.31
2018-10-06T01:46:53.322Z,98.46
2018-10-06T01:47:53.500Z,98.55
2018-10-06T01:48:53.667Z,98.93
2018-10-06T01:49:53.898Z,99.22
2018-10-06T01:50:54.086Z,99.79
2018-10-06T01:51:54.198Z,99.41
2018-10-06T01:52:54.374Z,98.65
2018-10-06T01:53:54.548Z,98.74
2018-10-06T01:54:54.723Z,98.74
2018-10-06T01:55:54.893Z,99.02
2018-10-06T01:56:55.068Z,99.07
2018-10-06T01:57:55.241Z,98.88
2018-10-06T01:58:55.418Z,98.50
2018-10-06T01:59:55.594Z,99.45
2018-10-06T02:00:55.774Z,99.26
2018-10-06T02:01:55.948Z,99.16
2018-10-06T02:02:56.117Z,98.60
2018-10-06T02:03:56.291Z,99.16
2018-10-06T02:04:56.470Z,99.22
2018-10-06T02:05:56.643Z,98.12
2018-10-06T02:06:56.823Z,98.36
2018-10-06T02:07:56.991Z,97.69
2018-10-06T02:08:57.163Z,97.98
2018-10-06T02:09:57.336Z,97.69
2018-10-06T02:10:57.537Z,98.08
2018-10-06T02:11:57.680Z,98.08
2018-10-06T02:12:57.858Z,98.17
2018-10-06T02:13:58.031Z,97.69
2018-10-06T02:14:58.205Z,97.69
2018-10-06T02:15:58.380Z,97.22
2018-10-06T02:16:58.556Z,97.13
2018-10-06T02:17:58.735Z,97.13
2018-10-06T02:18:58.909Z,96.94
2018-10-06T02:19:59.088Z,96.65
2018-10-06T02:20:59.261Z,95.89
2018-10-06T02:21:59.436Z,96.26
2018-10-06T02:22:59.613Z,96.55
2018-10-06T02:23:59.784Z,97.13
2018-10-06T02:24:59.964Z,97.64
2018-10-06T02:26:00.138Z,97.83
2018-10-06T02:27:00.319Z,98.12
2018-10-06T02:28:00.486Z,98.12
2018-10-06T02:29:00.663Z,98.22
2018-10-06T02:30:00.949Z,97.93
2018-10-06T02:31:01.012Z,98.22
2018-10-06T02:32:01.187Z,98.31
2018-10-06T02:33:01.366Z,98.03
2018-10-06T02:34:01.539Z,98.12
2018-10-06T02:35:01.720Z,98.22
2018-10-06T02:36:01.887Z,98.03
2018-10-06T02:37:02.070Z,98.22
2018-10-06T02:38:02.238Z,98.60
2018-10-06T02:39:02.414Z,98.69
2018-10-06T02:40:02.592Z,98.97
2018-10-06T02:41:02.761Z,99.07
2018-10-06T02:42:02.963Z,99.99
2018-10-06T02:43:03.117Z,99.99
2018-10-06T02:44:03.291Z,99.93
2018-10-06T02:45:03.459Z,99.99
2018-10-06T02:46:03.636Z,99.99
2018-10-06T02:47:03.809Z,99.99
2018-10-06T02:48:03.984Z,99.99
2018-10-06T02:49:04.158Z,99.99
2018-10-06T02:50:04.333Z,99.99
2018-10-06T02:51:04.513Z,99.99
2018-10-06T02:52:04.686Z,99.99
2018-10-06T02:53:04.861Z,99.93
2018-10-06T02:54:05.040Z,99.99
2018-10-06T02:55:05.208Z,99.99
2018-10-06T02:56:05.389Z,99.99
2018-10-06T02:57:05.565Z,99.84
2018-10-06T02:58:05.739Z,99.99
2018-10-06T02:59:05.913Z,99.84
2018-10-06T03:00:06.087Z,99.99
2018-10-06T03:01:06.262Z,99.99
2018-10-06T03:02:06.437Z,99.99
2018-10-06T03:03:06.608Z,99.99
2018-10-06T03:04:06.782Z,99.99
2018-10-06T03:05:06.959Z,99.99
2018-10-06T03:06:07.134Z,99.99
2018-10-06T03:07:07.307Z,99.99
2018-10-06T03:08:07.483Z,99.99
2018-10-06T03:09:07.659Z,99.99
2018-10-06T03:10:07.833Z,99.64
2018-10-06T03:11:08.000Z,99.07
2018-10-06T03:12:08.185Z,98.69
2018-10-06T03:13:08.361Z,98.69
2018-10-06T03:14:08.541Z,98.79
2018-10-06T03:15:08.714Z,98.50
2018-10-06T03:16:08.896Z,98.31
2018-10-06T03:17:09.066Z,98.22
2018-10-06T03:18:09.244Z,98.60
2018-10-06T03:19:09.423Z,98.50
2018-10-06T03:20:09.596Z,98.88
2018-10-06T03:21:09.770Z,98.60
2018-10-06T03:22:09.944Z,98.60
2018-10-06T03:23:10.120Z,98.88
2018-10-06T03:24:10.294Z,98.97
2018-10-06T03:25:10.468Z,98.31
2018-10-06T03:26:10.647Z,98.79
2018-10-06T03:27:10.820Z,99.16
2018-10-06T03:28:10.994Z,99.74
2018-10-06T03:29:11.168Z,99.64
2018-10-06T03:30:11.346Z,99.99
2018-10-06T03:31:11.520Z,99.99
2018-10-06T03:32:11.695Z,99.99
2018-10-06T03:33:11.866Z,99.99
2018-10-06T03:34:12.043Z,99.99
2018-10-06T03:35:12.222Z,99.99
2018-10-06T03:36:12.399Z,99.99
2018-10-06T03:37:12.574Z,99.99
2018-10-06T03:38:12.744Z,99.99
2018-10-06T03:39:12.919Z,99.99
2018-10-06T03:40:13.093Z,99.99
2018-10-06T03:41:13.266Z,99.99
2018-10-06T03:42:13.441Z,99.99
2018-10-06T03:43:13.612Z,99.99
2018-10-06T03:44:13.789Z,99.99
2018-10-06T03:45:13.963Z,99.99
2018-10-06T03:46:14.132Z,99.99
2018-10-06T03:47:14.308Z,99.99
2018-10-06T03:48:14.479Z,99.99
2018-10-06T03:49:14.653Z,99.99
2018-10-06T03:50:14.828Z,99.99
2018-10-06T03:51:15.005Z,99.99
2018-10-06T03:52:15.189Z,99.99
2018-10-06T03:53:15.358Z,99.99
2018-10-06T03:54:15.537Z,99.99
2018-10-06T03:55:15.714Z,99.99
2018-10-06T03:56:15.884Z,99.99
2018-10-06T03:57:16.059Z,99.99
2018-10-06T03:58:16.236Z,99.99
2018-10-06T03:59:16.411Z,99.84
2018-10-06T04:00:16.591Z,99.26
2018-10-06T04:01:16.761Z,99.26
2018-10-06T04:02:16.934Z,99.64
2018-10-06T04:03:17.108Z,99.07
2018-10-06T04:04:17.284Z,99.64
2018-10-06T04:05:17.459Z,99.64
2018-10-06T04:06:17.629Z,99.55
2018-10-06T04:07:17.812Z,99.45
2018-10-06T04:08:17.973Z,99.64
2018-10-06T04:09:18.151Z,99.16
2018-10-06T04:10:18.334Z,99.16
2018-10-06T04:11:18.495Z,99.16
2018-10-06T04:12:18.672Z,99.36
2018-10-06T04:13:18.841Z,99.26
2018-10-06T04:14:19.017Z,99.84
2018-10-06T04:15:19.191Z,99.84
2018-10-06T04:16:19.367Z,99.64
2018-10-06T04:17:19.544Z,99.36
2018-10-06T04:18:19.713Z,99.26
2018-10-06T04:19:19.891Z,99.84
2018-10-06T04:20:20.072Z,99.74
2018-10-06T04:21:20.246Z,99.74
2018-10-06T04:22:20.413Z,99.99
2018-10-06T04:23:20.593Z,99.74
2018-10-06T04:24:20.765Z,99.36
2018-10-06T04:25:20.939Z,99.16
2018-10-06T04:26:21.114Z,99.26
2018-10-06T04:27:21.287Z,99.45
2018-10-06T04:28:21.492Z,99.99
2018-10-06T04:29:21.637Z,99.99
2018-10-06T04:30:21.807Z,99.64
2018-10-06T04:31:21.989Z,99.36
2018-10-06T04:32:22.163Z,99.30
2018-10-06T04:33:22.337Z,99.99
2018-10-06T04:34:22.508Z,99.99
2018-10-06T04:35:22.682Z,99.88
2018-10-06T04:36:22.855Z,99.78
2018-10-06T04:37:23.040Z,99.88
2018-10-06T04:38:23.212Z,99.84
2018-10-06T04:39:23.382Z,99.97
2018-10-06T04:40:23.554Z,99.07
2018-10-06T04:41:23.730Z,99.07
2018-10-06T04:42:23.904Z,98.69
2018-10-06T04:43:24.082Z,98.26
2018-10-06T04:44:24.255Z,98.69
2018-10-06T04:45:24.432Z,98.22
2018-10-06T04:46:24.611Z,98.03
2018-10-06T04:47:24.785Z,97.83
2018-10-06T04:48:24.971Z,98.55
2018-10-06T04:49:25.163Z,98.55
2018-10-06T04:50:25.308Z,99.02
2018-10-06T04:51:25.483Z,99.30
2018-10-06T04:52:25.659Z,99.97
2018-10-06T04:53:25.831Z,99.99
2018-10-06T04:54:26.011Z,99.99
2018-10-06T04:55:26.180Z,99.84
2018-10-06T04:56:26.356Z,99.74
2018-10-06T04:57:26.531Z,98.45
2018-10-06T04:58:26.704Z,98.74
2018-10-06T04:59:26.891Z,98.26
2018-10-06T05:00:27.057Z,98.41
2018-10-06T05:01:27.234Z,98.36
2018-10-06T05:02:27.411Z,98.26
2018-10-06T05:03:27.672Z,98.45
2018-10-06T05:04:27.763Z,98.93
2018-10-06T05:05:27.938Z,98.55
2018-10-06T05:06:28.113Z,98.55
2018-10-06T05:07:28.287Z,98.55
2018-10-06T05:08:28.462Z,98.07
2018-10-06T05:09:28.647Z,98.26
2018-10-06T05:10:28.823Z,98.36
2018-10-06T05:11:28.983Z,98.83
2018-10-06T05:12:29.157Z,98.03
2018-10-06T05:13:29.333Z,97.78
2018-10-06T05:14:29.506Z,97.64
2018-10-06T05:15:29.681Z,96.84
2018-10-06T05:16:29.859Z,96.36
2018-10-06T05:17:30.045Z,96.84
2018-10-06T05:18:30.206Z,97.60
2018-10-06T05:19:30.380Z,97.97
2018-10-06T05:20:30.556Z,97.97
2018-10-06T05:21:30.727Z,97.88
2018-10-06T05:22:30.907Z,97.78
2018-10-06T05:23:31.176Z,97.60
2018-10-06T05:24:31.258Z,97.93
2018-10-06T05:25:31.431Z,97.60
2018-10-06T05:26:31.611Z,97.93
2018-10-06T05:27:31.785Z,97.64
2018-10-06T05:28:31.962Z,97.60
2018-10-06T05:29:32.131Z,96.93
2018-10-06T05:30:32.308Z,96.84
2018-10-06T05:31:32.482Z,96.93
2018-10-06T05:32:32.668Z,96.55
2018-10-06T05:33:32.828Z,96.36
2018-10-06T05:34:32.995Z,96.93
2018-10-06T05:35:33.169Z,97.03
2018-10-06T05:36:33.343Z,97.03
2018-10-06T05:37:33.519Z,96.84
2018-10-06T05:38:33.694Z,97.03
2018-10-06T05:39:33.869Z,97.12
2018-10-06T05:40:34.051Z,96.93
2018-10-06T05:41:34.224Z,97.03
2018-10-06T05:42:34.395Z,97.22
2018-10-06T05:43:34.572Z,97.78
2018-10-06T05:44:34.740Z,97.50
2018-10-06T05:45:34.913Z,97.69
2018-10-06T05:46:35.107Z,98.03
2018-10-06T05:47:35.270Z,97.69
2018-10-06T05:48:35.435Z,97.50
2018-10-06T05:49:35.630Z,97.64
2018-10-06T05:50:35.788Z,97.60
2018-10-06T05:51:36.008Z,97.55
2018-10-06T05:52:36.139Z,97.17
2018-10-06T05:53:36.312Z,97.17
2018-10-06T05:54:36.508Z,97.12
2018-10-06T05:55:36.659Z,97.08
2018-10-06T05:56:36.834Z,97.50
2018-10-06T05:57:37.021Z,97.60
2018-10-06T05:58:37.183Z,97.50
2018-10-06T05:59:37.365Z,97.97
2018-10-06T06:00:37.531Z,97.93
2018-10-06T06:01:37.706Z,98.03
2018-10-06T06:02:37.884Z,97.83
2018-10-06T06:03:38.051Z,97.27
2018-10-06T06:04:38.236Z,97.08
2018-10-06T06:05:38.409Z,97.36
2018-10-06T06:06:38.585Z,97.22
2018-10-06T06:07:38.763Z,97.55
2018-10-06T06:08:38.932Z,97.27
2018-10-06T06:09:39.109Z,97.27
2018-10-06T06:10:39.276Z,97.08
2018-10-06T06:11:39.455Z,96.60
2018-10-06T06:12:39.626Z,96.98
2018-10-06T06:13:39.800Z,96.98
2018-10-06T06:14:39.974Z,96.60
2018-10-06T06:15:40.193Z,96.12
2018-10-06T06:16:40.324Z,96.22
2018-10-06T06:17:40.500Z,95.12
2018-10-06T06:18:41.025Z,95.41
2018-10-06T06:19:40.822Z,94.56
2018-10-06T06:20:41.002Z,93.51
2018-10-06T06:21:41.615Z,93.04
2018-10-06T06:22:41.396Z,92.84
2018-10-06T06:23:41.580Z,92.70
2018-10-06T06:24:42.067Z,92.36
2018-10-06T06:25:42.007Z,92.94
2018-10-06T06:26:42.184Z,92.51
2018-10-06T06:27:42.366Z,91.84
2018-10-06T06:28:42.538Z,91.56
2018-10-06T06:29:42.705Z,91.17
2018-10-06T06:30:42.895Z,90.99
2018-10-06T06:31:43.061Z,90.99
2018-10-06T06:32:43.254Z,90.89
2018-10-06T06:33:43.405Z,90.94
2018-10-06T06:34:43.583Z,90.27
2018-10-06T06:35:43.757Z,88.93
2018-10-06T06:36:43.932Z,88.03
2018-10-06T06:37:44.107Z,87.65
2018-10-06T06:38:44.284Z,87.70
2018-10-06T06:39:44.459Z,87.60
2018-10-06T06:40:44.635Z,88.08
2018-10-06T06:41:44.811Z,87.17
2018-10-06T06:42:44.973Z,87.51
2018-10-06T06:43:45.280Z,87.55
2018-10-06T06:44:45.331Z,87.07
2018-10-06T06:45:45.510Z,86.36
2018-10-06T06:46:45.692Z,87.51
2018-10-06T06:47:45.871Z,87.74
2018-10-06T06:48:46.046Z,87.17
2018-10-06T06:49:46.203Z,87.07
2018-10-06T06:50:46.386Z,86.22
2018-10-06T06:51:46.557Z,86.79
2018-10-06T06:52:46.733Z,86.88
2018-10-06T06:53:46.912Z,87.02
2018-10-06T06:54:47.132Z,86.07
2018-10-06T06:55:47.265Z,85.50
2018-10-06T06:56:47.445Z,84.45
2018-10-06T06:57:47.619Z,84.45
2018-10-06T06:58:47.798Z,84.74
2018-10-06T06:59:47.976Z,83.92
2018-10-06T07:00:48.152Z,83.16
2018-10-06T07:01:48.329Z,83.54
2018-10-06T07:02:48.517Z,83.25
2018-10-06T07:03:48.690Z,83.54
2018-10-06T07:04:48.880Z,83.06
2018-10-06T07:05:49.113Z,82.59
2018-10-06T07:06:49.233Z,82.30
2018-10-06T07:07:49.412Z,82.11
2018-10-06T07:08:49.595Z,81.63
2018-10-06T07:09:49.776Z,82.01
2018-10-06T07:10:49.963Z,82.01
2018-10-06T07:11:50.124Z,81.77
2018-10-06T07:12:50.300Z,81.10
2018-10-06T07:13:50.517Z,81.01
2018-10-06T07:14:50.693Z,81.38
2018-10-06T07:15:50.869Z,80.43
2018-10-06T07:16:51.048Z,80.72
2018-10-06T07:17:51.227Z,80.81
2018-10-06T07:18:51.407Z,80.76
2018-10-06T07:19:51.571Z,79.99
2018-10-06T07:20:51.760Z,79.99
2018-10-06T07:21:51.928Z,79.71
2018-10-06T07:22:52.108Z,79.23
2018-10-06T07:23:52.290Z,78.41
2018-10-06T07:24:52.465Z,77.84
2018-10-06T07:25:52.641Z,77.55
2018-10-06T07:26:52.824Z,77.84
2018-10-06T07:27:52.988Z,77.74
2018-10-06T07:28:53.170Z,77.84
2018-10-06T07:29:53.349Z,77.84
2018-10-06T07:30:53.527Z,77.21
2018-10-06T07:31:53.699Z,76.16
2018-10-06T07:32:53.894Z,75.87
2018-10-06T07:33:54.076Z,76.82
2018-10-06T07:34:54.252Z,76.60
2018-10-06T07:35:54.431Z,77.55
2018-10-06T07:36:54.614Z,77.21
2018-10-06T07:37:54.792Z,76.45
2018-10-06T07:38:54.981Z,75.87
2018-10-06T07:39:55.158Z,75.39
2018-10-06T07:40:55.340Z,76.06
2018-10-06T07:41:55.510Z,75.24
2018-10-06T07:42:55.687Z,74.99
2018-10-06T07:43:55.870Z,74.32
2018-10-06T07:44:56.139Z,74.04
2018-10-06T07:45:56.230Z,74.13
2018-10-06T07:46:56.392Z,74.13
2018-10-06T07:47:56.577Z,74.85
2018-10-06T07:48:56.752Z,75.24
2018-10-06T07:49:56.930Z,75.91
2018-10-06T07:50:57.109Z,75.56
2018-10-06T07:51:57.291Z,74.70
2018-10-06T07:52:57.488Z,73.88
2018-10-06T07:53:57.654Z,72.92
2018-10-06T07:54:57.837Z,73.27
2018-10-06T07:55:58.029Z,74.61
2018-10-06T07:56:58.221Z,74.51
2018-10-06T07:57:58.386Z,74.16
2018-10-06T07:58:58.567Z,74.41
2018-10-06T07:59:58.743Z,75.18
2018-10-06T08:00:58.925Z,74.95
2018-10-06T08:01:59.107Z,76.10
2018-10-06T08:02:59.278Z,75.47
2018-10-06T08:03:59.465Z,75.41
2018-10-06T08:04:59.640Z,74.74
2018-10-06T08:05:59.810Z,74.16
2018-10-06T08:06:59.993Z,73.05
2018-10-06T08:08:00.155Z,72.38
2018-10-06T08:09:00.339Z,71.75
2018-10-06T08:10:00.513Z,71.62
2018-10-06T08:11:00.688Z,73.05
2018-10-06T08:12:00.855Z,72.03
2018-10-06T08:13:01.038Z,71.56
2018-10-06T08:14:01.222Z,70.79
2018-10-06T08:15:01.390Z,69.58
2018-10-06T08:16:01.571Z,69.77
2018-10-06T08:17:01.757Z,69.39
2018-10-06T08:18:01.935Z,68.37
2018-10-06T08:19:02.115Z,67.73
2018-10-06T08:20:02.293Z,66.49
2018-10-06T08:21:02.480Z,67.25
2018-10-06T08:22:02.657Z,67.16
2018-10-06T08:23:02.833Z,66.86
2018-10-06T08:24:03.031Z,66.96
2018-10-06T08:25:03.234Z,65.94
2018-10-06T08:26:03.399Z,64.89
2018-10-06T08:27:03.583Z,64.40
2018-10-06T08:28:03.767Z,64.50
2018-10-06T08:29:03.947Z,64.53
2018-10-06T08:30:04.137Z,64.43
2018-10-06T08:31:04.323Z,63.70
2018-10-06T08:32:04.499Z,63.28
2018-10-06T08:33:04.667Z,63.60
2018-10-06T08:34:04.845Z,63.79
2018-10-06T08:35:05.025Z,63.96
2018-10-06T08:36:05.213Z,64.92
2018-10-06T08:37:05.389Z,66.16
2018-10-06T08:38:05.578Z,65.59
2018-10-06T08:39:05.798Z,65.20
2018-10-06T08:40:05.922Z,66.03
2018-10-06T08:41:06.144Z,65.72
2018-10-06T08:42:06.287Z,64.69
2018-10-06T08:43:06.487Z,63.64
2018-10-06T08:44:06.653Z,63.54
2018-10-06T08:45:06.841Z,63.64
2018-10-06T08:46:07.024Z,63.64
2018-10-06T08:47:07.200Z,63.18
2018-10-06T08:48:07.390Z,63.45
2018-10-06T08:49:07.580Z,64.22
2018-10-06T08:50:07.747Z,64.95
2018-10-06T08:51:07.945Z,65.66
2018-10-06T08:52:08.130Z,64.79
2018-10-06T08:53:08.310Z,64.79
2018-10-06T08:54:08.493Z,64.50
2018-10-06T08:55:08.686Z,63.54
2018-10-06T08:56:09.010Z,64.34
2018-10-06T08:57:09.047Z,64.25
2018-10-06T08:58:09.257Z,63.38
2018-10-06T08:59:09.419Z,63.22
2018-10-06T09:00:09.598Z,62.29
2018-10-06T09:01:09.799Z,61.10
2018-10-06T09:02:09.972Z,59.68
2018-10-06T09:03:10.148Z,59.45
2018-10-06T09:04:10.346Z,59.20
2018-10-06T09:05:10.519Z,57.97
2018-10-06T09:06:11.559Z,57.39
2018-10-06T09:07:10.879Z,56.46
2018-10-06T09:08:11.075Z,57.49
2018-10-06T09:09:11.250Z,58.23
2018-10-06T09:10:11.436Z,57.49
2018-10-06T09:11:11.624Z,56.26
2018-10-06T09:12:11.805Z,56.68
2018-10-06T09:13:11.984Z,56.84
2018-10-06T09:14:12.169Z,55.90
2018-10-06T09:15:12.349Z,55.55
2018-10-06T09:16:12.538Z,55.42
2018-10-06T09:17:12.724Z,55.42
2018-10-06T09:18:12.896Z,54.97
2018-10-06T09:19:13.089Z,54.22
2018-10-06T09:20:13.265Z,53.77
2018-10-06T09:21:13.453Z,54.13
2018-10-06T09:22:13.651Z,54.39
2018-10-06T09:23:13.890Z,54.51
2018-10-06T09:24:14.033Z,53.86
2018-10-06T09:25:14.248Z,54.49
2018-10-06T09:26:14.442Z,56.26
2018-10-06T09:27:14.617Z,56.22
2018-10-06T09:28:14.902Z,55.26
2018-10-06T09:29:15.004Z,55.65
2018-10-06T09:30:15.175Z,55.07
2018-10-06T09:31:15.354Z,54.58
2018-10-06T09:32:15.541Z,55.09
2018-10-06T09:33:15.732Z,54.71
2018-10-06T09:34:15.920Z,54.83
2018-10-06T09:35:16.086Z,53.50
2018-10-06T09:36:16.273Z,53.21
2018-10-06T09:37:16.462Z,52.85
2018-10-06T09:38:16.642Z,52.10
2018-10-06T09:39:16.823Z,51.52
2018-10-06T09:40:17.012Z,51.86
2018-10-06T09:41:17.188Z,53.45
2018-10-06T09:42:17.604Z,54.57
2018-10-06T09:43:17.562Z,53.04
2018-10-06T09:44:17.725Z,52.78
2018-10-06T09:45:17.913Z,52.46
2018-10-06T09:46:18.097Z,52.58
2018-10-06T09:47:18.278Z,52.08
2018-10-06T09:48:18.474Z,52.58
2018-10-06T09:49:18.660Z,51.35
2018-10-06T09:50:18.850Z,50.50
2018-10-06T09:51:19.036Z,50.50
2018-10-06T09:52:19.220Z,49.97
2018-10-06T09:53:19.393Z,49.82
2018-10-06T09:54:19.575Z,51.06
2018-10-06T09:55:19.770Z,51.74
2018-10-06T09:56:19.948Z,50.70
2018-10-06T09:57:20.117Z,50.43
2018-10-06T09:58:20.305Z,50.72
2018-10-06T09:59:20.553Z,51.04
2018-10-06T10:00:20.684Z,50.26
2018-10-06T10:01:20.853Z,50.07
2018-10-06T10:02:21.035Z,50.36
2018-10-06T10:03:21.200Z,50.16
2018-10-06T10:04:21.403Z,51.50
2018-10-06T10:05:21.617Z,50.82
2018-10-06T10:06:21.775Z,51.23
2018-10-06T10:07:21.908Z,51.11
2018-10-06T10:08:22.119Z,50.84
2018-10-06T10:09:22.288Z,50.09
2018-10-06T10:10:22.455Z,50.36
2018-10-06T10:11:22.665Z,51.04
2018-10-06T10:12:22.853Z,51.23
2018-10-06T10:13:23.018Z,51.01
2018-10-06T10:14:23.199Z,52.44
2018-10-06T10:15:23.416Z,52.44
2018-10-06T10:16:23.566Z,53.00
2018-10-06T10:17:23.808Z,53.12
2018-10-06T10:18:24.132Z,52.76
2018-10-06T10:19:24.120Z,52.86
2018-10-06T10:20:24.302Z,52.66
2018-10-06T10:21:24.492Z,52.30
2018-10-06T10:22:24.813Z,51.55
2018-10-06T10:23:24.929Z,51.35
2018-10-06T10:24:25.033Z,50.84
2018-10-06T10:25:25.223Z,51.98
2018-10-06T10:26:25.438Z,51.26
2018-10-06T10:27:25.623Z,50.51
2018-10-06T10:28:25.855Z,50.58
2018-10-06T10:29:25.966Z,50.63
2018-10-06T10:30:26.148Z,50.04
2018-10-06T10:31:26.341Z,50.31
2018-10-06T10:32:26.496Z,51.16
2018-10-06T10:33:26.699Z,50.60
2018-10-06T10:34:26.885Z,50.21
2018-10-06T10:35:27.008Z,50.53
2018-10-06T10:36:27.197Z,49.87
2018-10-06T10:37:27.451Z,48.44
2018-10-06T10:38:27.527Z,48.17
2018-10-06T10:39:27.818Z,48.07
2018-10-06T10:40:27.876Z,47.39
2018-10-06T10:41:28.070Z,48.36
2018-10-06T10:42:28.245Z,49.00
2018-10-06T10:43:28.422Z,48.34
2018-10-06T10:44:28.741Z,48.05
2018-10-06T10:45:28.785Z,52.51
2018-10-06T10:46:28.979Z,55.46
2018-10-06T10:47:29.147Z,54.67
2018-10-06T10:48:29.386Z,52.59
2018-10-06T10:49:29.755Z,50.51
2018-10-06T10:50:29.776Z,50.04
2018-10-06T10:51:29.928Z,48.88
2018-10-06T10:52:30.093Z,48.49
2018-10-06T10:53:30.311Z,48.30
2018-10-06T10:54:30.493Z,48.10
2018-10-06T10:55:30.677Z,48.10
2018-10-06T10:56:30.832Z,47.23
2018-10-06T10:57:31.109Z,47.34
2018-10-06T10:58:31.193Z,47.05
2018-10-06T10:59:31.427Z,46.47
2018-10-06T11:00:31.664Z,46.77
2018-10-06T11:01:31.711Z,46.98
2018-10-06T11:02:31.888Z,46.08
2018-10-06T11:03:32.067Z,45.91
2018-10-06T11:04:32.299Z,45.52
2018-10-06T11:05:32.437Z,46.37
2018-10-06T11:06:32.621Z,46.47
2018-10-06T11:07:32.798Z,45.62
2018-10-06T11:08:32.973Z,45.45
2018-10-06T11:09:33.136Z,45.15
2018-10-06T11:10:33.333Z,45.62
2018-10-06T11:11:33.527Z,45.62
2018-10-06T11:12:33.714Z,45.06
2018-10-06T11:13:33.871Z,44.76
2018-10-06T11:14:34.079Z,44.32
2018-10-06T11:15:34.237Z,44.59
2018-10-06T11:16:34.410Z,44.40
2018-10-06T11:17:34.574Z,45.11
2018-10-06T11:18:34.764Z,47.01
2018-10-06T11:19:34.939Z,47.40
2018-10-06T11:20:35.107Z,47.42
2018-10-06T11:21:35.290Z,47.30
2018-10-06T11:22:35.475Z,47.23
2018-10-06T11:23:35.646Z,46.98
2018-10-06T11:24:35.824Z,47.13
2018-10-06T11:25:36.025Z,46.37
2018-10-06T11:26:36.158Z,45.72
2018-10-06T11:27:36.344Z,44.96
2018-10-06T11:28:36.531Z,44.67
2018-10-06T11:29:36.711Z,45.50
2018-10-06T11:30:36.891Z,45.60
2018-10-06T11:31:37.068Z,45.23
2018-10-06T11:32:37.241Z,44.48
2018-10-06T11:33:37.403Z,44.38
2018-10-06T11:34:37.572Z,45.14
2018-10-06T11:35:37.744Z,44.57
2018-10-06T11:36:37.920Z,45.31
2018-10-06T11:37:38.367Z,45.69
2018-10-06T11:38:38.274Z,46.81
2018-10-06T11:39:38.446Z,48.13
2018-10-06T11:40:38.678Z,48.71
2018-10-06T11:41:38.827Z,48.42
2018-10-06T11:42:39.006Z,49.19
2018-10-06T11:43:39.209Z,49.19
2018-10-06T11:44:39.386Z,49.39
2018-10-06T11:45:39.554Z,48.97
2018-10-06T11:46:39.741Z,49.75
2018-10-06T11:47:39.934Z,49.56
2018-10-06T11:48:40.084Z,49.85
2018-10-06T11:49:40.290Z,49.66
2018-10-06T11:50:40.473Z,49.75
2018-10-06T11:51:40.697Z,49.46
2018-10-06T11:52:40.813Z,49.95
2018-10-06T11:53:40.980Z,49.58
2018-10-06T11:54:41.158Z,49.66
2018-10-06T11:55:41.348Z,49.75
2018-10-06T11:56:41.527Z,49.92
2018-10-06T11:57:41.711Z,49.82
2018-10-06T11:58:41.883Z,50.55
2018-10-06T11:59:42.125Z,51.06
2018-10-06T12:00:42.286Z,51.25
2018-10-06T12:01:42.412Z,50.96
2018-10-06T12:02:42.599Z,50.77
2018-10-06T12:03:42.766Z,50.67
2018-10-06T12:04:42.962Z,50.31
2018-10-06T12:05:43.199Z,50.50
2018-10-06T12:06:43.280Z,50.31
2018-10-06T12:07:43.461Z,50.41
2018-10-06T12:08:43.640Z,50.21
2018-10-06T12:09:43.798Z,50.12
2018-10-06T12:10:43.986Z,50.70
2018-10-06T12:11:44.137Z,50.70
2018-10-06T12:12:44.311Z,50.21
2018-10-06T12:13:44.497Z,50.41
2018-10-06T12:14:44.673Z,50.12
2018-10-06T12:15:44.861Z,50.12
2018-10-06T12:16:45.040Z,50.31
2018-10-06T12:17:45.224Z,50.31
2018-10-06T12:18:45.460Z,50.12
2018-10-06T12:19:45.624Z,50.70
2018-10-06T12:20:45.818Z,50.38
2018-10-06T12:21:45.962Z,50.70
2018-10-06T12:22:46.161Z,50.79
2018-10-06T12:23:46.335Z,50.02
2018-10-06T12:24:46.552Z,50.02
2018-10-06T12:25:46.695Z,50.19
2018-10-06T12:26:46.881Z,50.09
2018-10-06T12:27:47.067Z,50.21
2018-10-06T12:28:47.249Z,50.57
2018-10-06T12:29:47.433Z,50.48
2018-10-06T12:30:47.631Z,50.41
2018-10-06T12:31:47.805Z,50.79
2018-10-06T12:32:47.967Z,49.92
2018-10-06T12:33:48.165Z,49.54
2018-10-06T12:34:48.485Z,49.63
2018-10-06T12:35:48.677Z,49.73
2018-10-06T12:36:48.677Z,49.90
2018-10-06T12:37:48.866Z,50.19
2018-10-06T12:38:49.035Z,49.51
2018-10-06T12:39:49.199Z,49.99
2018-10-06T12:40:49.380Z,49.99
2018-10-06T12:41:49.551Z,49.80
2018-10-06T12:42:49.728Z,49.61
2018-10-06T12:43:49.915Z,49.22
2018-10-06T12:44:50.110Z,49.19
2018-10-06T12:45:50.439Z,49.10
2018-10-06T12:46:50.485Z,49.41
2018-10-06T12:47:50.669Z,49.41
2018-10-06T12:48:50.839Z,48.64
2018-10-06T12:49:51.027Z,48.93
2018-10-06T12:50:51.206Z,48.93
2018-10-06T12:51:51.384Z,49.22
2018-10-06T12:52:51.561Z,49.32
2018-10-06T12:53:51.737Z,49.77
2018-10-06T12:54:51.920Z,49.39